createdAt,value
2022-12-27T00:01:20.919Z,50.80
2022-12-27T00:04:09.752Z,50.70
2022-12-27T00:06:56.954Z,50.60
2022-12-27T00:09:44.458Z,50.70
2022-12-27T00:12:31.905Z,50.60
2022-12-27T00:15:19.063Z,50.60
2022-12-27T00:18:06.523Z,50.50
2022-12-27T00:21:00.480Z,50.50
2022-12-27T00:23:51.916Z,50.00
2022-12-27T00:26:41.060Z,50.10
2022-12-27T00:29:29.157Z,50.30
2022-12-27T00:32:16.390Z,50.20
2022-12-27T00:35:03.715Z,50.10
2022-12-27T00:37:54.223Z,50.10
2022-12-27T00:40:42.011Z,50.00
2022-12-27T00:43:29.056Z,50.10
2022-12-27T00:46:17.078Z,50.00
2022-12-27T00:49:04.998Z,49.90
2022-12-27T00:51:53.094Z,49.90
2022-12-27T00:54:41.932Z,49.90
2022-12-27T00:57:29.011Z,49.50
2022-12-27T01:00:17.636Z,49.70
2022-12-27T01:03:05.259Z,49.60
2022-12-27T01:05:52.658Z,49.60
2022-12-27T01:08:40.641Z,49.50
2022-12-27T01:11:30.501Z,49.50
2022-12-27T01:14:17.585Z,49.30
2022-12-27T01:17:04.694Z,49.40
2022-12-27T01:19:51.602Z,49.30
2022-12-27T01:22:38.704Z,49.30
2022-12-27T01:25:25.925Z,49.30
2022-12-27T01:28:14.391Z,49.30
2022-12-27T01:31:07.179Z,49.30
2022-12-27T01:33:57.620Z,48.80
2022-12-27T01:36:45.570Z,49.00
2022-12-27T01:39:33.876Z,49.20
2022-12-27T01:42:38.998Z,49.20
2022-12-27T01:45:29.562Z,49.20
2022-12-27T01:48:20.349Z,49.00
2022-12-27T01:51:08.159Z,49.10
2022-12-27T01:53:55.891Z,49.20
2022-12-27T01:56:43.514Z,49.20
2022-12-27T01:59:31.432Z,49.20
2022-12-27T02:02:22.504Z,49.20
2022-12-27T02:05:14.291Z,49.00
2022-12-27T02:08:16.016Z,49.10
2022-12-27T02:11:05.792Z,48.80
2022-12-27T02:13:53.049Z,49.20
2022-12-27T02:16:40.131Z,49.30
2022-12-27T02:19:41.379Z,49.30
2022-12-27T02:23:39.858Z,48.90
2022-12-27T02:26:57.659Z,48.80
2022-12-27T02:30:00.361Z,48.80
2022-12-27T02:32:55.761Z,48.90
2022-12-27T02:35:47.976Z,49.80
2022-12-27T02:38:39.586Z,49.20
2022-12-27T02:41:45.703Z,49.10
2022-12-27T02:44:49.493Z,49.30
2022-12-27T02:47:56.269Z,49.30
2022-12-27T02:51:17.216Z,49.30
2022-12-27T02:54:18.114Z,48.90
2022-12-27T02:57:17.311Z,49.10
2022-12-27T03:00:29.819Z,49.10
2022-12-27T03:03:44.630Z,48.90
2022-12-27T03:07:11.998Z,48.80
2022-12-27T03:10:47.889Z,48.80
2022-12-27T03:14:01.303Z,48.70
2022-12-27T03:16:57.754Z,49.00
2022-12-27T03:20:06.987Z,48.90
2022-12-27T03:23:14.220Z,49.00
2022-12-27T03:26:05.396Z,49.70
2022-12-27T03:29:25.985Z,49.00
2022-12-27T03:32:33.524Z,49.10
2022-12-27T03:35:24.820Z,49.10
2022-12-27T03:38:14.400Z,49.00
2022-12-27T03:41:22.730Z,48.90
2022-12-27T03:47:14.839Z,49.10
2022-12-27T03:50:10.151Z,48.80
2022-12-27T03:53:05.051Z,48.70
2022-12-27T03:55:52.513Z,48.80
2022-12-27T03:58:39.431Z,49.00
2022-12-27T04:01:26.671Z,48.90
2022-12-27T04:04:15.082Z,48.80
2022-12-27T04:07:02.317Z,48.80
2022-12-27T04:10:07.091Z,48.80
2022-12-27T04:13:12.836Z,48.80
2022-12-27T04:16:17.463Z,48.80
2022-12-27T04:19:22.132Z,48.80
2022-12-27T04:22:28.004Z,48.80
2022-12-27T04:25:32.674Z,48.80
2022-12-27T04:28:37.227Z,48.80
2022-12-27T04:31:41.922Z,48.70
2022-12-27T04:34:42.305Z,48.50
2022-12-27T04:37:30.916Z,48.60
2022-12-27T04:40:36.834Z,48.30
2022-12-27T04:43:41.282Z,48.30
2022-12-27T04:46:46.590Z,48.40
2022-12-27T04:49:52.790Z,48.40
2022-12-27T04:52:58.878Z,48.30
2022-12-27T04:55:45.928Z,48.30
2022-12-27T04:58:33.301Z,48.40
2022-12-27T05:01:38.045Z,48.30
2022-12-27T05:04:25.613Z,48.30
2022-12-27T05:07:32.594Z,48.30
2022-12-27T05:10:38.454Z,48.10
2022-12-27T05:13:42.840Z,48.10
2022-12-27T05:16:31.757Z,48.20
2022-12-27T05:19:19.115Z,48.20
2022-12-27T05:22:23.849Z,48.30
2022-12-27T05:25:29.847Z,48.30
2022-12-27T05:28:18.483Z,48.30
2022-12-27T05:31:05.906Z,48.30
2022-12-27T05:33:54.404Z,48.40
2022-12-27T05:36:41.473Z,48.40
2022-12-27T05:39:28.487Z,48.40
2022-12-27T05:42:15.809Z,48.50
2022-12-27T05:45:05.022Z,48.50
2022-12-27T05:47:53.082Z,48.40
2022-12-27T05:50:40.455Z,48.50
2022-12-27T05:53:30.547Z,48.60
2022-12-27T05:56:19.988Z,48.50
2022-12-27T05:59:08.122Z,48.50
2022-12-27T06:01:56.882Z,48.50
2022-12-27T06:04:43.980Z,48.40
2022-12-27T06:07:31.250Z,48.50
2022-12-27T06:10:18.408Z,48.50
2022-12-27T06:13:06.683Z,48.50
2022-12-27T06:15:53.735Z,48.40
2022-12-27T06:18:43.887Z,48.40
2022-12-27T06:21:31.468Z,48.30
2022-12-27T06:24:18.970Z,48.40
2022-12-27T06:27:05.965Z,48.30
2022-12-27T06:29:54.134Z,48.40
2022-12-27T06:32:41.319Z,48.20
2022-12-27T06:35:29.758Z,48.30
2022-12-27T06:38:17.005Z,48.20
2022-12-27T06:41:05.992Z,48.20
2022-12-27T06:43:57.273Z,48.20
2022-12-27T06:46:44.619Z,48.00
2022-12-27T06:49:31.790Z,48.20
2022-12-27T06:52:22.149Z,48.30
2022-12-27T06:55:09.631Z,48.30
2022-12-27T06:57:56.935Z,48.40
2022-12-27T07:00:44.079Z,48.40
2022-12-27T07:03:31.573Z,48.40
2022-12-27T07:06:04.113Z,48.40
2022-12-27T07:08:34.558Z,48.30
2022-12-27T07:11:05.708Z,48.30
2022-12-27T07:13:36.187Z,48.30
2022-12-27T07:16:06.358Z,48.30
2022-12-27T07:18:35.773Z,48.30
2022-12-27T07:21:07.010Z,48.40
2022-12-27T07:23:37.599Z,48.30
2022-12-27T07:26:09.064Z,48.30
2022-12-27T07:28:37.964Z,48.20
2022-12-27T07:31:09.293Z,48.20
2022-12-27T07:33:38.446Z,48.20
2022-12-27T07:36:10.244Z,48.30
2022-12-27T07:38:40.224Z,48.20
2022-12-27T07:41:08.866Z,48.30
2022-12-27T07:43:37.855Z,48.30
2022-12-27T07:46:09.812Z,48.40
2022-12-27T07:48:39.010Z,48.30
2022-12-27T07:51:08.201Z,48.40
2022-12-27T07:53:37.468Z,48.40
2022-12-27T07:56:13.264Z,48.60
2022-12-27T07:58:44.280Z,48.30
2022-12-27T08:01:14.767Z,48.50
2022-12-27T08:03:44.513Z,48.60
2022-12-27T08:06:23.839Z,48.70
2022-12-27T08:08:54.455Z,48.50
2022-12-27T08:11:26.509Z,48.60
2022-12-27T08:13:55.334Z,48.60
2022-12-27T08:16:26.989Z,48.70
2022-12-27T08:18:56.014Z,48.80
2022-12-27T08:21:24.792Z,48.80
2022-12-27T08:23:53.459Z,48.90
2022-12-27T08:26:24.385Z,48.80
2022-12-27T08:28:53.455Z,48.90
2022-12-27T08:31:22.155Z,48.90
2022-12-27T08:33:56.645Z,48.80
2022-12-27T08:36:57.274Z,48.90
2022-12-27T08:39:15.799Z,48.90
2022-12-27T08:41:46.110Z,48.90
2022-12-27T08:44:15.183Z,48.90
2022-12-27T08:46:43.894Z,49.10
2022-12-27T08:49:12.563Z,49.00
2022-12-27T08:51:41.787Z,49.00
2022-12-27T08:54:11.276Z,49.10
2022-12-27T08:56:39.913Z,49.10
2022-12-27T08:59:09.908Z,49.10
2022-12-27T09:01:38.671Z,49.10
2022-12-27T09:04:07.550Z,49.10
2022-12-27T09:06:36.686Z,49.20
2022-12-27T09:09:05.463Z,49.20
2022-12-27T09:11:35.989Z,49.30
2022-12-27T09:14:06.932Z,49.20
2022-12-27T09:16:37.151Z,49.30
2022-12-27T09:19:06.188Z,49.40
2022-12-27T09:21:36.507Z,49.40
2022-12-27T09:24:05.556Z,49.50
2022-12-27T09:26:34.401Z,49.40
2022-12-27T09:29:03.078Z,49.40
2022-12-27T09:31:32.166Z,49.50
2022-12-27T09:34:02.270Z,49.50
2022-12-27T09:36:31.556Z,49.40
2022-12-27T09:39:00.879Z,49.50
2022-12-27T09:42:45.857Z,49.50
2022-12-27T09:44:51.058Z,49.30
2022-12-27T09:47:27.769Z,49.40
2022-12-27T09:50:03.810Z,49.40
2022-12-27T09:52:37.495Z,49.50
2022-12-27T09:55:13.611Z,49.50
2022-12-27T09:57:44.882Z,49.50
2022-12-27T10:00:19.674Z,49.50
2022-12-27T10:03:06.815Z,49.40
2022-12-27T10:05:39.556Z,49.50
2022-12-27T10:08:33.257Z,49.30
2022-12-27T10:11:33.597Z,49.20
2022-12-27T10:14:23.128Z,49.30
2022-12-27T10:17:01.770Z,49.30
2022-12-27T10:19:42.839Z,49.30
2022-12-27T10:22:26.512Z,49.30
2022-12-27T10:25:01.230Z,49.30
2022-12-27T10:27:31.411Z,49.30
2022-12-27T10:30:01.333Z,49.40
2022-12-27T10:32:30.005Z,49.30
2022-12-27T10:35:01.413Z,49.30
2022-12-27T10:37:31.514Z,49.30
2022-12-27T10:40:06.682Z,49.30
2022-12-27T10:42:41.767Z,49.30
2022-12-27T10:45:36.423Z,49.30
2022-12-27T10:48:21.081Z,49.20
2022-12-27T10:50:57.523Z,49.10
2022-12-27T10:53:40.188Z,49.20
2022-12-27T10:56:22.421Z,49.10
2022-12-27T10:58:58.455Z,49.30
2022-12-27T11:01:30.620Z,49.30
2022-12-27T11:04:19.690Z,49.30
2022-12-27T11:06:53.848Z,49.30
2022-12-27T11:09:32.811Z,49.40
2022-12-27T11:12:19.276Z,49.30
2022-12-27T11:15:00.402Z,49.40
2022-12-27T11:17:37.511Z,49.40
2022-12-27T11:20:22.522Z,49.40
2022-12-27T11:22:55.828Z,49.30
2022-12-27T11:25:28.563Z,49.40
2022-12-27T11:28:02.042Z,49.30
2022-12-27T11:30:34.645Z,49.30
2022-12-27T11:33:07.401Z,49.20
2022-12-27T11:35:47.515Z,49.20
2022-12-27T11:38:25.706Z,49.30
2022-12-27T11:41:05.774Z,49.20
2022-12-27T11:43:39.472Z,49.00
2022-12-27T11:46:21.761Z,49.10
2022-12-27T11:48:58.454Z,49.10
2022-12-27T11:52:06.200Z,49.10
2022-12-27T11:55:27.611Z,49.10
2022-12-27T11:58:28.192Z,49.10
2022-12-27T12:01:05.738Z,49.10
2022-12-27T12:04:13.501Z,49.20
2022-12-27T12:06:54.963Z,49.10
2022-12-27T12:09:57.957Z,49.00
2022-12-27T12:13:23.951Z,49.00
2022-12-27T12:16:28.053Z,49.00
2022-12-27T12:19:32.180Z,49.00
2022-12-27T12:22:22.610Z,49.00
2022-12-27T12:25:30.214Z,49.00
2022-12-27T12:28:56.360Z,49.00
2022-12-27T12:31:53.591Z,49.00
2022-12-27T12:34:42.980Z,49.10
2022-12-27T12:37:26.836Z,48.90
2022-12-27T12:40:13.195Z,49.00
2022-12-27T12:42:53.896Z,48.90
2022-12-27T12:45:59.306Z,49.00
2022-12-27T12:49:28.183Z,48.80
2022-12-27T12:52:18.869Z,48.90
2022-12-27T12:55:26.195Z,48.90
2022-12-27T12:58:09.665Z,49.00
2022-12-27T13:01:08.072Z,48.90
2022-12-27T13:04:23.690Z,48.90
2022-12-27T13:07:16.991Z,48.80
2022-12-27T13:10:11.271Z,48.90
2022-12-27T13:12:52.851Z,49.00
2022-12-27T13:15:33.740Z,49.00
2022-12-27T13:18:16.429Z,49.00
2022-12-27T13:21:12.883Z,49.00
2022-12-27T13:23:56.351Z,49.00
2022-12-27T13:26:36.321Z,49.00
2022-12-27T13:29:34.865Z,49.00
2022-12-27T13:32:13.906Z,48.90
2022-12-27T13:35:17.904Z,49.00
2022-12-27T13:38:08.544Z,48.90
2022-12-27T13:41:00.900Z,48.90
2022-12-27T13:44:19.842Z,48.90
2022-12-27T13:47:17.650Z,48.80
2022-12-27T13:50:18.837Z,48.90
2022-12-27T13:53:06.811Z,48.90
2022-12-27T13:55:49.085Z,48.90
2022-12-27T13:58:57.736Z,48.90
2022-12-27T14:02:03.321Z,48.80
2022-12-27T14:05:18.602Z,48.80
2022-12-27T14:08:03.896Z,48.80
2022-12-27T14:10:38.983Z,48.80
2022-12-27T14:13:09.666Z,48.80
2022-12-27T14:16:08.758Z,48.90
2022-12-27T14:19:00.875Z,48.70
2022-12-27T14:21:53.933Z,48.70
2022-12-27T14:25:07.867Z,48.80
2022-12-27T14:28:41.737Z,48.90
2022-12-27T14:31:41.429Z,48.90
2022-12-27T14:35:10.171Z,48.90
2022-12-27T14:38:34.291Z,48.90
2022-12-27T14:41:46.710Z,49.00
2022-12-27T14:45:16.559Z,48.90
2022-12-27T14:48:18.145Z,48.90
2022-12-27T14:55:28.315Z,49.00
2022-12-27T14:58:21.824Z,49.00
2022-12-27T15:01:11.092Z,48.80
2022-12-27T15:04:00.250Z,48.80
2022-12-27T15:07:13.467Z,48.90
2022-12-27T15:09:49.939Z,48.80
2022-12-27T15:12:31.533Z,48.90
2022-12-27T15:15:18.410Z,48.90
2022-12-27T15:18:43.943Z,48.90
2022-12-27T15:21:54.041Z,48.80
2022-12-27T15:24:35.671Z,48.80
2022-12-27T15:27:19.802Z,48.80
2022-12-27T15:30:09.223Z,48.70
2022-12-27T15:32:54.467Z,48.80
2022-12-27T15:35:48.985Z,48.80
2022-12-27T15:38:49.659Z,48.80
2022-12-27T15:41:35.619Z,48.80
2022-12-27T15:44:38.565Z,48.80
2022-12-27T15:48:00.494Z,48.80
2022-12-27T15:50:43.823Z,48.80
2022-12-27T15:53:58.486Z,48.70
2022-12-27T15:57:08.480Z,48.70
2022-12-27T15:59:45.948Z,48.70
2022-12-27T16:02:38.323Z,48.80
2022-12-27T16:05:35.499Z,48.70
2022-12-27T16:08:35.246Z,48.80
2022-12-27T16:11:08.874Z,48.70
2022-12-27T16:13:50.603Z,48.70
2022-12-27T16:17:00.038Z,48.70
2022-12-27T16:20:02.060Z,48.80
2022-12-27T16:22:39.839Z,48.80
2022-12-27T16:25:33.670Z,48.80
2022-12-27T16:28:07.756Z,48.80
2022-12-27T16:30:49.621Z,48.90
2022-12-27T16:33:35.026Z,48.90
2022-12-27T16:36:13.735Z,48.80
2022-12-27T16:38:53.007Z,48.90
2022-12-27T16:41:40.170Z,48.90
2022-12-27T16:44:24.542Z,48.80
2022-12-27T16:47:10.539Z,48.80
2022-12-27T16:50:01.368Z,48.80
2022-12-27T16:52:53.932Z,48.80
2022-12-27T16:55:53.699Z,48.80
2022-12-27T16:58:35.771Z,48.80
2022-12-27T17:01:07.650Z,48.80
2022-12-27T17:03:49.149Z,48.90
2022-12-27T17:06:57.566Z,48.80
2022-12-27T17:09:47.667Z,48.80
2022-12-27T17:12:39.614Z,48.80
2022-12-27T17:15:13.694Z,48.80
2022-12-27T17:17:46.818Z,48.80
2022-12-27T17:20:19.268Z,48.70
2022-12-27T17:22:55.515Z,48.80
2022-12-27T17:25:38.811Z,48.70
2022-12-27T17:28:16.448Z,48.70
2022-12-27T17:30:57.143Z,48.70
2022-12-27T17:33:40.039Z,48.60
2022-12-27T17:36:36.623Z,48.60
2022-12-27T17:39:28.372Z,48.50
2022-12-27T17:42:24.974Z,48.50
2022-12-27T17:45:29.628Z,48.50
2022-12-27T17:48:25.030Z,48.50
2022-12-27T17:51:02.035Z,48.50
2022-12-27T17:53:48.301Z,48.50
2022-12-27T17:56:47.394Z,48.60
2022-12-27T17:59:29.206Z,48.60
2022-12-27T18:02:05.926Z,48.50
2022-12-27T18:04:41.464Z,48.60
2022-12-27T18:07:13.860Z,48.60
2022-12-27T18:09:47.741Z,48.60
2022-12-27T18:12:22.203Z,48.60
2022-12-27T18:15:00.590Z,48.60
2022-12-27T18:17:37.756Z,48.50
2022-12-27T18:20:34.849Z,48.40
2022-12-27T18:23:24.176Z,48.30
2022-12-27T18:26:03.017Z,48.30
2022-12-27T18:28:36.991Z,48.40
2022-12-27T18:31:13.730Z,48.40
2022-12-27T18:33:51.827Z,48.30
2022-12-27T18:36:30.144Z,48.20
2022-12-27T18:39:02.252Z,48.10
2022-12-27T18:41:38.859Z,48.20
2022-12-27T18:44:21.560Z,48.20
2022-12-27T18:46:57.667Z,48.20
2022-12-27T18:49:32.349Z,48.30
2022-12-27T18:52:01.825Z,48.20
2022-12-27T18:54:36.426Z,48.20
2022-12-27T18:57:08.078Z,48.10
2022-12-27T18:59:40.322Z,48.10
2022-12-27T19:02:37.017Z,48.10
2022-12-27T19:05:30.100Z,47.90
2022-12-27T19:08:13.546Z,48.00
2022-12-27T19:10:50.653Z,48.60
2022-12-27T19:13:25.644Z,47.90
2022-12-27T19:15:56.684Z,47.90
2022-12-27T19:18:28.927Z,48.00
2022-12-27T19:21:02.077Z,48.00
2022-12-27T19:23:34.738Z,47.90
2022-12-27T19:26:08.887Z,47.90
2022-12-27T19:28:39.501Z,47.90
2022-12-27T19:31:21.873Z,47.90
2022-12-27T19:33:54.792Z,47.70
2022-12-27T19:36:28.744Z,47.80
2022-12-27T19:38:59.676Z,47.70
2022-12-27T19:41:28.621Z,47.90
2022-12-27T19:43:57.770Z,47.80
2022-12-27T19:46:30.872Z,47.80
2022-12-27T19:51:50.927Z,47.70
2022-12-27T19:54:22.737Z,47.60
2022-12-27T19:56:51.929Z,47.60
2022-12-27T19:59:23.097Z,47.60
2022-12-27T20:01:55.309Z,47.60
2022-12-27T20:04:24.238Z,47.70
2022-12-27T20:06:55.765Z,47.70
2022-12-27T20:09:24.425Z,47.60
2022-12-27T20:11:53.165Z,47.60
2022-12-27T20:14:21.982Z,47.60
2022-12-27T20:16:50.931Z,47.60
2022-12-27T20:19:20.298Z,47.50
2022-12-27T20:21:50.625Z,47.40
2022-12-27T20:24:23.241Z,47.20
2022-12-27T20:26:51.980Z,47.20
2022-12-27T20:29:20.960Z,47.30
2022-12-27T20:31:52.217Z,47.20
2022-12-27T20:34:21.049Z,47.20
2022-12-27T20:36:49.980Z,47.20
2022-12-27T20:39:22.290Z,47.20
2022-12-27T20:41:51.007Z,47.20
2022-12-27T20:44:19.800Z,47.20
2022-12-27T20:46:52.297Z,47.20
2022-12-27T20:49:21.016Z,47.30
2022-12-27T20:51:50.812Z,47.20
2022-12-27T20:54:21.237Z,47.20
2022-12-27T20:56:49.887Z,47.20
2022-12-27T20:59:19.213Z,47.10
2022-12-27T21:01:50.478Z,47.10
2022-12-27T21:04:41.852Z,47.10
2022-12-27T21:07:28.989Z,47.20
2022-12-27T21:10:17.576Z,47.20
2022-12-27T21:13:04.737Z,47.20
2022-12-27T21:15:51.768Z,47.20
2022-12-27T21:18:38.921Z,47.20
2022-12-27T21:21:28.851Z,47.20
2022-12-27T21:24:16.148Z,47.20
2022-12-27T21:27:07.343Z,47.20
2022-12-27T21:29:54.619Z,47.20
2022-12-27T21:32:41.969Z,47.20
2022-12-27T21:35:29.191Z,47.20
2022-12-27T21:38:16.119Z,47.20
2022-12-27T21:41:07.660Z,47.10
2022-12-27T21:43:56.733Z,47.20
2022-12-27T21:46:48.550Z,47.20
2022-12-27T21:49:40.690Z,47.20
2022-12-27T21:52:28.926Z,47.30
2022-12-27T21:55:16.104Z,47.30
2022-12-27T21:58:03.507Z,47.30
2022-12-27T22:00:57.950Z,47.30
2022-12-27T22:03:47.523Z,47.10
2022-12-27T22:06:39.385Z,47.10
2022-12-27T22:09:28.755Z,47.10
2022-12-27T22:12:15.881Z,47.10
2022-12-27T22:15:02.996Z,47.00
2022-12-27T22:17:51.760Z,47.00
2022-12-27T22:20:45.065Z,46.90
2022-12-27T22:23:34.449Z,47.00
2022-12-27T22:26:25.049Z,47.00
2022-12-27T22:29:12.958Z,47.00
2022-12-27T22:32:00.459Z,47.10
2022-12-27T22:34:48.820Z,47.10
2022-12-27T22:37:36.227Z,47.00
2022-12-27T22:40:30.562Z,47.10
2022-12-27T22:43:18.610Z,47.20
2022-12-27T22:46:09.471Z,47.20
2022-12-27T22:48:59.282Z,47.20
2022-12-27T22:51:47.999Z,47.20
2022-12-27T22:55:05.211Z,47.40
2022-12-27T22:57:45.651Z,47.50
2022-12-27T23:00:32.741Z,47.50
2022-12-27T23:03:19.940Z,47.50
2022-12-27T23:06:07.652Z,47.60
2022-12-27T23:08:56.137Z,47.70
2022-12-27T23:11:43.415Z,47.80
2022-12-27T23:14:30.842Z,48.00
2022-12-27T23:17:17.903Z,48.10
2022-12-27T23:20:06.305Z,48.10
2022-12-27T23:22:53.544Z,48.20
2022-12-27T23:25:42.443Z,48.30
2022-12-27T23:28:29.654Z,48.50
2022-12-27T23:31:18.108Z,48.50
2022-12-27T23:34:05.695Z,48.50
2022-12-27T23:36:53.077Z,48.60
2022-12-27T23:39:40.068Z,48.60
2022-12-27T23:42:28.744Z,48.70
2022-12-27T23:45:16.222Z,48.70
2022-12-27T23:48:03.568Z,48.70
2022-12-27T23:50:50.566Z,48.70
2022-12-27T23:53:38.971Z,48.70
2022-12-27T23:56:28.699Z,48.70
2022-12-27T23:59:18.013Z,48.80
